Time;durP1;ratioP1;P1;durP2;ratioP2;P2;SDS_P1;SDS_P2;PMS_P1;PMS_P2;Temp;Humidity;BMP_temperature;BMP_pressure;BME280_temperature;BME280_humidity;BME280_pressure;Samples;Min_cycle;Max_cycle;Signal;HPM_P1;HPM_P2
2024/01/10 08:27:49;;;;;;;33.50;18.10;;;;;;;3.82;100.00;99415.72;5034840;28;21005;-65
2024/01/10 08:30:15;;;;;;;33.92;19.50;;;;;;;4.24;100.00;99467.53;5007553;28;20047;-66
2024/01/10 08:32:43;;;;;;;32.67;19.98;;;;;;;4.21;100.00;99468.50;5029785;28;20124;-66
2024/01/10 08:35:08;;;;;;;36.03;19.70;;;;;;;4.21;100.00;99478.00;5028971;28;20033;-67
2024/01/10 08:37:34;;;;;;;30.25;19.77;;;;;;;4.28;100.00;99478.50;5037637;28;20107;-62
2024/01/10 08:40:01;;;;;;;29.83;19.42;;;;;;;4.18;100.00;99444.69;5025128;28;20123;-67
2024/01/10 10:16:46;;;;;;;12.63;6.88;;;;;;;4.05;99.50;99537.16;5058333;27;1272649;-67
2024/01/10 10:19:12;;;;;;;13.55;7.40;;;;;;;3.88;98.02;99490.91;5085571;28;20028;-65
2024/01/10 10:21:38;;;;;;;13.65;7.80;;;;;;;4.16;96.03;99526.31;5068290;28;20082;-67
2024/01/10 10:24:09;;;;;;;13.30;7.22;;;;;;;4.25;96.61;99541.25;5075184;28;20024;-64
2024/01/10 10:26:37;;;;;;;14.27;7.32;;;;;;;4.29;95.07;99535.06;5063775;28;20027;-64
2024/01/10 10:29:05;;;;;;;12.55;7.25;;;;;;;4.39;94.89;99540.53;5060554;28;20056;-64
2024/01/10 10:31:32;;;;;;;11.68;6.63;;;;;;;4.39;93.83;99535.38;5081960;28;20028;-65
2024/01/10 10:34:02;;;;;;;13.52;7.28;;;;;;;4.18;93.97;99499.59;5066621;28;21339;-66
2024/01/10 10:36:27;;;;;;;10.98;6.88;;;;;;;4.48;92.45;99542.59;5068583;28;20016;-66
2024/01/10 10:38:53;;;;;;;13.43;6.78;;;;;;;4.43;91.17;99537.72;5056111;28;20093;-65
2024/01/10 10:41:19;;;;;;;12.93;7.13;;;;;;;4.57;91.21;99538.72;5061995;28;20126;-65
2024/01/10 10:43:44;;;;;;;13.27;6.78;;;;;;;4.62;91.79;99536.72;5072164;28;20070;-66
2024/01/10 10:46:14;;;;;;;13.50;7.18;;;;;;;4.76;91.92;99541.09;5065701;28;20035;-64
2024/01/10 10:48:39;;;;;;;15.80;7.60;;;;;;;4.46;91.86;99487.78;5063973;28;20023;-65
2024/01/10 10:51:09;;;;;;;12.00;7.07;;;;;;;4.78;90.41;99539.25;5052777;28;20109;-64
2024/01/10 10:53:35;;;;;;;14.20;7.20;;;;;;;4.88;90.80;99532.69;5069203;28;20036;-65
2024/01/10 10:56:03;;;;;;;15.10;7.50;;;;;;;4.87;90.40;99532.78;5060581;28;20047;-65
2024/01/10 10:58:30;;;;;;;13.00;8.00;;;;;;;4.65;90.99;99485.00;5065786;28;20032;-67
2024/01/10 11:00:56;;;;;;;13.95;7.75;;;;;;;4.97;89.72;99531.34;5040898;28;20035;-65
2024/01/10 11:03:24;;;;;;;14.60;8.13;;;;;;;4.93;89.75;99522.13;5065260;28;20032;-65
2024/01/10 11:05:50;;;;;;;14.85;8.32;;;;;;;4.93;90.40;99522.97;5062356;28;20074;-63
2024/01/10 11:08:20;;;;;;;13.00;8.23;;;;;;;4.94;90.44;99527.19;5070862;28;21061;-66
2024/01/10 11:10:46;;;;;;;13.43;8.20;;;;;;;4.88;90.70;99514.66;5061827;28;20142;-65
2024/01/10 12:14:10;;;;;;;16.17;9.63;;;;;;;4.62;94.67;99472.31;5082755;27;1306982;-64
2024/01/10 12:16:38;;;;;;;15.13;9.20;;;;;;;4.76;93.56;99474.09;5099574;27;20031;-66
2024/01/10 12:19:05;;;;;;;15.95;10.05;;;;;;;4.79;92.60;99473.94;5092032;28;20540;-69
2024/01/10 12:21:30;;;;;;;19.15;9.88;;;;;;;4.80;93.16;99460.13;5074114;27;20039;-67
2024/01/10 12:23:58;;;;;;;17.27;10.40;;;;;;;4.87;92.84;99463.19;5099860;27;20371;-68
2024/01/10 12:26:23;;;;;;;16.08;9.57;;;;;;;5.00;93.19;99461.56;5102965;27;20023;-66
2024/01/10 12:28:56;;;;;;;17.02;11.30;;;;;;;5.07;93.33;99451.72;5092370;27;20046;-65
2024/01/10 12:31:24;;;;;;;17.67;10.55;;;;;;;4.82;93.13;99410.19;5095522;27;20096;-67
2024/01/10 12:33:49;;;;;;;16.77;10.70;;;;;;;5.17;93.32;99456.25;5091787;27;20043;-65
2024/01/10 12:36:22;;;;;;;17.23;10.65;;;;;;;5.08;91.83;99454.22;5109126;27;20466;-64
2024/01/10 12:38:47;;;;;;;18.52;10.05;;;;;;;4.97;92.12;99447.09;5090196;27;20035;-65
2024/01/10 12:41:17;;;;;;;18.02;10.38;;;;;;;4.95;90.89;99428.34;5093794;27;20079;-65
2024/01/10 12:43:43;;;;;;;18.90;10.45;;;;;;;5.11;91.80;99446.31;5110764;27;20023;-65
2024/01/10 12:46:14;;;;;;;16.83;10.57;;;;;;;5.15;91.12;99439.25;5094652;27;20034;-65
2024/01/10 12:48:43;;;;;;;20.77;11.75;;;;;;;5.02;89.89;99444.28;5082614;27;20670;-67
2024/01/10 12:51:10;;;;;;;19.75;11.15;;;;;;;5.11;90.16;99435.16;5078898;28;20024;-67
2024/01/10 12:53:37;;;;;;;19.75;11.65;;;;;;;5.10;91.60;99424.03;5094065;27;20038;-66
2024/01/10 12:56:04;;;;;;;19.73;11.15;;;;;;;5.22;91.40;99426.78;5084918;28;20031;-67
2024/01/10 12:58:29;;;;;;;21.98;12.20;;;;;;;5.23;90.95;99425.88;5074845;27;20023;-66
2024/01/10 13:00:55;;;;;;;23.10;12.05;;;;;;;5.23;90.47;99418.16;5091967;27;20080;-66
2024/01/10 13:03:21;;;;;;;19.58;12.18;;;;;;;5.19;90.94;99426.06;5071780;28;20027;-66
2024/01/10 13:05:46;;;;;;;22.13;11.98;;;;;;;5.19;91.58;99414.94;5085792;27;20209;-67
2024/01/10 13:08:14;;;;;;;21.52;12.07;;;;;;;5.17;91.98;99422.75;5070256;27;20032;-67
2024/01/10 13:10:48;;;;;;;20.73;11.63;;;;;;;5.01;92.60;99386.72;5080498;27;20030;-66
2024/01/10 13:13:14;;;;;;;21.23;11.73;;;;;;;5.14;92.04;99415.19;5094387;27;20046;-67
2024/01/10 13:15:45;;;;;;;20.00;11.35;;;;;;;5.23;92.03;99418.97;5073222;27;20027;-67
2024/01/10 13:18:10;;;;;;;17.65;10.85;;;;;;;4.98;91.02;99365.44;5093721;27;20095;-67
2024/01/10 13:20:38;;;;;;;19.77;10.43;;;;;;;4.97;90.52;99363.81;5090141;27;20098;-66
2024/01/10 13:23:04;;;;;;;16.48;10.32;;;;;;;5.43;91.26;99419.53;5096057;28;20020;-67
2024/01/10 13:25:29;;;;;;;17.70;10.82;;;;;;;5.48;90.83;99415.75;5064423;27;20035;-66
2024/01/10 13:27:55;;;;;;;19.58;11.30;;;;;;;5.44;90.91;99401.41;5098691;28;20100;-65
2024/01/10 13:30:20;;;;;;;19.60;11.20;;;;;;;5.14;90.55;99365.38;5090667;27;21167;-66
2024/01/10 13:32:46;;;;;;;19.35;11.50;;;;;;;5.46;91.32;99417.63;5077106;27;20452;-66
2024/01/10 13:35:13;;;;;;;18.00;10.98;;;;;;;5.22;90.60;99355.44;5076659;28;20085;-65
2024/01/10 13:37:41;;;;;;;18.02;10.75;;;;;;;5.52;90.70;99411.25;5081825;27;21308;-66
2024/01/10 13:40:09;;;;;;;18.17;11.45;;;;;;;5.43;91.17;99404.88;5083620;28;20031;-65
2024/01/10 13:42:42;;;;;;;20.55;11.68;;;;;;;5.48;90.86;99407.22;5076237;27;20035;-66
2024/01/10 13:45:10;;;;;;;22.60;12.23;;;;;;;5.52;90.47;99411.25;5076812;28;20036;-66
2024/01/10 13:47:37;;;;;;;20.35;11.60;;;;;;;5.52;91.66;99396.59;5071614;27;20024;-66
2024/01/10 13:50:06;;;;;;;19.85;11.30;;;;;;;5.39;90.44;99406.00;5059870;28;20036;-65
2024/01/10 13:52:37;;;;;;;20.00;11.93;;;;;;;5.50;90.05;99401.03;5071497;28;20122;-66
2024/01/10 13:55:06;;;;;;;18.92;11.82;;;;;;;5.44;91.48;99400.56;5094209;27;20035;-65
2024/01/10 13:57:32;;;;;;;18.92;11.57;;;;;;;5.42;92.16;99389.50;5070771;28;20031;-66
2024/01/10 13:59:58;;;;;;;17.60;11.13;;;;;;;5.52;89.89;99401.75;5072426;27;20038;-66
2024/01/10 14:02:24;;;;;;;22.40;11.68;;;;;;;5.51;90.74;99402.69;5067906;28;20152;-68
2024/01/10 14:04:50;;;;;;;17.20;10.93;;;;;;;5.49;91.51;99377.91;5066300;27;20035;-63
2024/01/10 14:07:15;;;;;;;17.60;10.82;;;;;;;5.54;90.57;99392.16;5054586;28;20034;-66
2024/01/10 14:09:41;;;;;;;19.98;11.65;;;;;;;5.54;89.91;99383.59;5064551;28;20044;-67
2024/01/10 14:12:08;;;;;;;20.52;11.85;;;;;;;5.58;91.32;99387.66;5067555;27;20404;-66
2024/01/10 14:14:34;;;;;;;19.77;11.77;;;;;;;5.59;89.49;99400.47;5084021;27;20115;-67
2024/01/10 14:16:59;;;;;;;18.77;11.25;;;;;;;5.58;90.61;99391.06;5059625;27;20100;-65
2024/01/10 14:19:27;;;;;;;25.90;11.70;;;;;;;5.49;90.63;99377.91;5071589;28;20139;-67
2024/01/10 14:21:52;;;;;;;17.95;11.43;;;;;;;5.56;90.46;99381.75;5048359;27;20984;-67
2024/01/10 14:24:18;;;;;;;17.88;11.15;;;;;;;5.50;90.63;99375.22;5066549;28;20093;-65
2024/01/10 14:26:43;;;;;;;19.63;11.63;;;;;;;5.58;90.46;99385.06;5069908;28;20589;-67
2024/01/10 14:29:09;;;;;;;18.95;11.35;;;;;;;5.58;89.59;99388.50;5084920;28;20048;-66
2024/01/10 14:31:34;;;;;;;17.63;11.45;;;;;;;5.21;90.17;99330.56;5061814;28;20024;-67
2024/01/10 14:34:05;;;;;;;16.88;11.68;;;;;;;5.15;89.87;99334.34;5053568;28;20372;-67
2024/01/10 14:36:30;;;;;;;18.15;10.90;;;;;;;5.44;88.69;99382.50;5050368;28;20032;-67
2024/01/10 14:38:58;;;;;;;17.35;11.73;;;;;;;5.27;89.60;99350.81;5066115;28;20668;-66
2024/01/10 14:41:23;;;;;;;18.77;11.02;;;;;;;5.56;90.86;99395.47;5071659;28;20239;-65
2024/01/10 14:43:51;;;;;;;18.08;10.75;;;;;;;5.43;90.96;99386.00;5054404;28;20517;-66
2024/01/10 14:46:16;;;;;;;21.50;11.18;;;;;;;5.22;90.88;99354.59;5072116;28;20058;-67
2024/01/10 14:48:42;;;;;;;21.25;12.30;;;;;;;5.25;92.31;99390.53;5068464;27;20036;-67
2024/01/10 14:51:07;;;;;;;20.48;12.68;;;;;;;5.14;90.97;99386.81;5056532;28;20023;-65
2024/01/10 14:53:35;;;;;;;20.48;11.82;;;;;;;5.22;91.00;99388.97;5098992;27;20478;-67
2024/01/10 14:56:02;;;;;;;23.23;12.90;;;;;;;4.89;91.01;99348.81;5082681;28;20031;-65
2024/01/10 14:58:28;;;;;;;22.02;12.15;;;;;;;4.77;90.07;99331.47;5075958;28;20493;-66
2024/01/10 15:00:53;;;;;;;22.77;12.98;;;;;;;5.15;90.18;99385.09;5054484;27;20035;-66
2024/01/10 15:03:25;;;;;;;18.25;11.57;;;;;;;5.15;90.39;99378.19;5057082;28;20088;-64
2024/01/10 15:05:51;;;;;;;20.50;12.45;;;;;;;5.17;91.23;99378.91;5077155;27;20020;-65
2024/01/10 15:08:17;;;;;;;20.35;12.25;;;;;;;5.27;92.45;99375.78;5061269;28;20496;-67
2024/01/10 15:10:42;;;;;;;20.98;11.82;;;;;;;5.38;93.36;99381.13;5060607;27;20030;-65
2024/01/10 15:13:12;;;;;;;19.98;12.07;;;;;;;5.03;93.82;99323.94;5058405;27;20048;-65
2024/01/10 15:15:42;;;;;;;21.95;12.20;;;;;;;4.93;92.15;99319.34;5057349;27;20028;-65
2024/01/10 15:18:09;;;;;;;21.50;12.80;;;;;;;5.27;92.05;99371.44;5059211;28;20055;-65
2024/01/10 15:20:35;;;;;;;19.70;12.75;;;;;;;5.37;92.14;99372.56;5060726;27;20061;-65
2024/01/10 15:23:05;;;;;;;22.77;13.80;;;;;;;5.42;92.70;99385.19;5056188;28;20388;-65
2024/01/10 15:25:30;;;;;;;20.05;12.57;;;;;;;5.48;94.03;99381.41;5062689;28;20530;-67
2024/01/10 15:27:56;;;;;;;23.20;12.52;;;;;;;5.46;93.54;99383.22;5074963;28;20049;-65
2024/01/10 15:30:24;;;;;;;18.35;11.43;;;;;;;5.41;93.14;99374.97;5059129;28;20020;-66
2024/01/10 15:32:49;;;;;;;21.02;12.98;;;;;;;5.33;93.07;99373.69;5094447;27;20629;-65
2024/01/10 15:35:15;;;;;;;20.70;12.20;;;;;;;5.32;93.19;99371.19;5076280;28;20041;-65
2024/01/10 15:37:43;;;;;;;20.65;11.85;;;;;;;5.27;93.74;99370.63;5075291;28;20056;-66
2024/01/10 15:40:13;;;;;;;19.00;11.82;;;;;;;5.31;92.32;99377.25;5077579;27;20047;-65
2024/01/10 15:42:41;;;;;;;22.52;12.63;;;;;;;5.33;92.80;99375.41;5060764;28;20062;-65
2024/01/10 15:45:09;;;;;;;23.75;14.15;;;;;;;5.45;91.45;99382.41;5076800;27;20046;-64
2024/01/10 15:47:37;;;;;;;21.27;14.18;;;;;;;5.45;92.47;99376.44;5081394;27;20024;-68
2024/01/10 15:50:03;;;;;;;19.20;13.38;;;;;;;5.41;92.72;99383.53;5057163;27;20650;-65
2024/01/10 15:52:28;;;;;;;22.83;13.80;;;;;;;5.45;93.35;99392.72;5070205;28;20024;-66
2024/01/10 15:54:54;;;;;;;20.50;13.07;;;;;;;5.39;94.90;99378.44;5077269;28;20062;-65
2024/01/10 15:57:24;;;;;;;22.65;11.98;;;;;;;5.36;93.91;99388.13;5091448;27;20046;-63
2024/01/10 15:59:49;;;;;;;;;;;;;;;5.20;92.70;99389.06;5078120;28;20445;-65
2024/01/10 16:02:17;;;;;;;17.27;10.45;;;;;;;4.93;92.92;99334.00;5058267;28;20038;-67
2024/01/10 16:04:46;;;;;;;17.85;10.23;;;;;;;5.00;91.73;99327.53;5080207;28;20020;-66
2024/01/10 16:07:11;;;;;;;22.20;10.65;;;;;;;4.98;93.30;99329.38;5074155;28;20031;-66
2024/01/10 16:09:37;;;;;;;18.30;11.85;;;;;;;5.19;92.18;99368.53;5063881;28;20537;-66
2024/01/10 16:12:03;;;;;;;18.00;10.63;;;;;;;5.21;92.79;99384.72;5067186;28;20333;-66
2024/01/10 16:14:34;;;;;;;18.83;11.40;;;;;;;5.14;92.72;99384.25;5076287;28;20080;-66
2024/01/10 16:17:02;;;;;;;21.63;12.18;;;;;;;5.12;92.22;99382.69;5057080;28;20020;-64
2024/01/10 16:19:28;;;;;;;18.00;11.75;;;;;;;4.89;92.51;99338.50;5076106;28;20187;-65
2024/01/10 16:21:54;;;;;;;18.77;11.30;;;;;;;5.25;92.97;99396.50;5069676;28;20662;-65
2024/01/10 16:24:22;;;;;;;20.67;12.25;;;;;;;5.15;92.33;99385.91;5050214;28;20899;-67
2024/01/10 16:26:50;;;;;;;19.08;12.43;;;;;;;5.33;91.78;99394.31;5047855;28;20110;-67
2024/01/10 16:29:17;;;;;;;20.73;12.68;;;;;;;5.30;91.40;99389.31;5060845;28;20046;-65
2024/01/10 16:31:43;;;;;;;22.60;12.70;;;;;;;5.27;91.94;99386.91;5042087;28;20087;-65
2024/01/10 16:34:08;;;;;;;19.48;12.63;;;;;;;5.25;91.68;99395.69;5063096;28;20424;-64
2024/01/10 16:36:36;;;;;;;21.88;13.25;;;;;;;5.11;93.15;99388.75;5043224;28;20044;-66
2024/01/10 16:39:05;;;;;;;18.60;12.85;;;;;;;5.10;93.50;99397.44;5044773;28;20695;-66
2024/01/10 16:41:32;;;;;;;20.50;11.95;;;;;;;4.97;93.74;99387.00;5046342;28;20046;-66
2024/01/10 16:44:02;;;;;;;19.85;13.07;;;;;;;5.03;93.52;99393.56;5061213;28;20028;-64
2024/01/10 16:46:28;;;;;;;20.05;12.95;;;;;;;4.99;92.77;99388.56;5044052;28;20521;-66
2024/01/10 16:48:54;;;;;;;24.05;13.70;;;;;;;5.09;93.36;99388.88;5079059;28;20046;-66
2024/01/10 16:51:19;;;;;;;18.75;13.23;;;;;;;5.09;92.91;99388.88;5064436;28;20046;-66
2024/01/10 16:53:45;;;;;;;21.65;13.23;;;;;;;5.08;93.23;99394.94;5034629;28;20024;-64
2024/01/10 16:56:10;;;;;;;20.67;13.48;;;;;;;5.06;93.25;99403.69;5047273;28;20626;-67
2024/01/10 16:58:35;;;;;;;20.40;13.02;;;;;;;4.78;93.25;99340.84;5072434;28;20046;-65
2024/01/10 17:01:01;;;;;;;20.70;13.30;;;;;;;5.16;93.58;99402.22;5058605;28;20102;-64
2024/01/10 17:03:26;;;;;;;20.65;13.15;;;;;;;5.08;93.07;99396.69;5048252;28;20627;-66
2024/01/10 17:05:54;;;;;;;20.05;12.48;;;;;;;5.15;92.48;99398.81;5066489;28;20039;-66
2024/01/10 17:08:22;;;;;;;20.67;12.23;;;;;;;5.14;93.22;99411.78;5044168;28;20363;-66
2024/01/10 17:10:48;;;;;;;19.30;12.90;;;;;;;5.05;92.67;99394.28;5064682;27;20069;-65
2024/01/10 17:13:13;;;;;;;20.35;13.02;;;;;;;5.05;93.51;99396.88;5038787;27;20135;-66
2024/01/10 17:15:40;;;;;;;24.40;13.48;;;;;;;5.00;93.39;99397.97;5062935;28;20019;-66
2024/01/10 17:18:05;;;;;;;22.92;13.48;;;;;;;5.02;93.53;99392.72;5066253;28;20067;-64
2024/01/10 17:20:33;;;;;;;21.63;13.23;;;;;;;4.96;94.07;99398.22;5051808;27;20127;-66
2024/01/10 17:22:58;;;;;;;19.58;13.32;;;;;;;4.97;93.92;99394.75;5066950;28;20035;-66
2024/01/10 17:25:27;;;;;;;19.17;13.13;;;;;;;4.89;94.87;99399.50;5067751;28;20035;-66
2024/01/10 17:27:53;;;;;;;21.23;13.07;;;;;;;4.97;94.04;99405.06;5051261;28;21045;-64
2024/01/10 17:30:19;;;;;;;23.83;13.48;;;;;;;5.12;94.28;99406.72;5065590;28;20032;-64
2024/01/10 17:32:44;;;;;;;21.70;12.95;;;;;;;4.99;94.25;99403.22;5069974;28;20028;-65
2024/01/10 17:35:10;;;;;;;21.98;13.65;;;;;;;4.92;94.84;99400.16;5051934;27;20184;-66
2024/01/10 17:37:35;;;;;;;22.40;14.35;;;;;;;4.97;94.70;99399.91;5067471;28;20036;-65
2024/01/10 17:40:01;;;;;;;20.10;13.02;;;;;;;4.98;94.82;99393.81;5056311;28;20862;-67
2024/01/10 17:42:31;;;;;;;22.00;13.43;;;;;;;4.89;94.26;99392.63;5067344;28;20027;-67
2024/01/10 17:44:56;;;;;;;21.27;12.68;;;;;;;4.75;94.38;99406.28;5065903;28;20859;-67
2024/01/10 17:47:24;;;;;;;22.38;13.88;;;;;;;4.75;94.10;99403.72;5081640;27;20027;-67
2024/01/10 17:49:52;;;;;;;23.98;12.75;;;;;;;4.42;92.56;99360.94;5059726;28;20036;-67
2024/01/10 17:52:19;;;;;;;19.90;12.77;;;;;;;4.74;92.31;99409.78;5061218;28;20032;-67
2024/01/10 17:54:49;;;;;;;21.88;13.70;;;;;;;4.45;91.35;99365.06;5056804;28;20035;-66
2024/01/10 17:57:19;;;;;;;19.70;13.13;;;;;;;4.78;90.93;99405.28;5056994;27;20039;-65
2024/01/10 17:59:45;;;;;;;20.95;13.05;;;;;;;4.41;90.99;99361.03;5058120;27;20058;-67
2024/01/10 18:02:10;;;;;;;20.33;12.75;;;;;;;4.73;90.72;99415.84;5039237;28;20032;-65
2024/01/10 18:04:37;;;;;;;22.20;13.75;;;;;;;4.72;90.69;99416.75;5079468;27;20085;-65
2024/01/10 18:07:04;;;;;;;21.15;12.68;;;;;;;4.79;89.65;99418.06;5057296;28;20035;-65
2024/01/10 18:09:31;;;;;;;19.60;12.50;;;;;;;4.68;89.63;99406.75;5070966;27;20028;-66
2024/01/10 18:11:57;;;;;;;21.38;13.15;;;;;;;4.74;89.98;99416.69;5077048;27;20076;-70
2024/01/10 18:14:25;;;;;;;19.60;12.77;;;;;;;4.70;89.59;99422.94;5058612;28;20105;-67
2024/01/10 18:16:50;;;;;;;21.20;12.65;;;;;;;4.76;89.75;99425.16;5058208;28;20222;-69
2024/01/10 18:19:16;;;;;;;19.05;12.35;;;;;;;4.80;89.28;99429.19;5040740;28;20764;-69
2024/01/10 18:21:41;;;;;;;18.58;12.15;;;;;;;4.73;89.52;99417.63;5056534;28;20064;-68
2024/01/10 18:24:07;;;;;;;19.33;12.75;;;;;;;4.79;89.03;99422.41;5036563;28;20029;-67
2024/01/10 18:26:32;;;;;;;17.67;12.13;;;;;;;4.71;88.58;99425.44;5051290;28;20484;-69
2024/01/10 18:29:00;;;;;;;19.40;12.13;;;;;;;4.39;88.57;99378.31;5056314;28;20024;-69
2024/01/10 18:31:25;;;;;;;20.35;11.95;;;;;;;4.67;88.13;99428.25;5057993;28;20142;-67
2024/01/10 18:33:52;;;;;;;18.33;11.82;;;;;;;4.65;87.67;99427.50;5054111;28;20105;-69
2024/01/10 18:36:17;;;;;;;20.02;12.15;;;;;;;4.68;88.10;99437.66;5038142;28;20036;-68
2024/01/10 18:38:43;;;;;;;20.33;12.68;;;;;;;4.27;87.99;99374.69;5053508;28;20060;-67
2024/01/10 18:41:08;;;;;;;20.40;12.00;;;;;;;4.50;88.84;99436.94;5039021;28;20037;-67
2024/01/10 18:43:34;;;;;;;20.60;12.40;;;;;;;4.55;88.75;99434.94;5045401;28;20035;-68
2024/01/10 18:46:01;;;;;;;20.50;12.52;;;;;;;4.51;88.90;99433.44;5038650;28;20031;-67
2024/01/10 18:48:34;;;;;;;18.77;11.85;;;;;;;4.19;89.24;99400.03;5048264;28;20036;-69
2024/01/10 18:51:01;;;;;;;20.23;11.50;;;;;;;4.31;88.83;99391.63;5042938;28;20097;-67
2024/01/10 18:53:34;;;;;;;19.73;11.55;;;;;;;4.58;88.51;99434.75;5064244;28;20036;-66
2024/01/10 18:55:59;;;;;;;21.98;12.10;;;;;;;4.57;88.93;99439.06;5061085;28;20176;-68
2024/01/10 18:58:25;;;;;;;19.67;12.82;;;;;;;4.53;89.27;99431.63;5051701;28;20579;-69
2024/01/10 19:00:51;;;;;;;19.55;12.52;;;;;;;4.66;88.29;99445.47;5032110;28;20039;-67
2024/01/10 19:03:18;;;;;;;22.35;12.27;;;;;;;4.70;88.16;99443.53;5037721;28;20056;-67
2024/01/10 19:05:46;;;;;;;23.00;12.50;;;;;;;4.76;87.83;99449.19;5031977;28;20039;-66
2024/01/10 19:08:14;;;;;;;22.13;12.55;;;;;;;4.44;88.61;99399.47;5034255;28;20085;-67
2024/01/10 19:10:40;;;;;;;20.77;12.55;;;;;;;4.72;88.40;99445.09;5053828;28;20032;-68
2024/01/10 19:13:07;;;;;;;22.58;12.88;;;;;;;4.70;88.32;99436.63;5051509;28;20974;-69
2024/01/10 19:15:33;;;;;;;20.42;13.02;;;;;;;4.73;88.31;99440.81;5067452;28;20546;-68
2024/01/10 19:17:59;;;;;;;20.27;12.57;;;;;;;4.58;88.17;99409.00;5039080;28;20036;-67
2024/01/10 19:20:24;;;;;;;20.88;12.65;;;;;;;4.76;87.86;99433.72;5038491;28;20028;-66
2024/01/10 19:22:50;;;;;;;23.55;13.57;;;;;;;4.84;87.13;99440.16;5035226;28;20038;-67
2024/01/10 19:25:15;;;;;;;21.15;13.25;;;;;;;4.72;87.65;99434.78;5029111;28;20046;-67
2024/01/10 19:27:43;;;;;;;22.52;11.98;;;;;;;4.82;87.26;99441.09;5034160;28;20089;-69
2024/01/10 19:30:20;;;;;;;20.65;13.00;;;;;;;4.76;88.37;99441.47;5031789;28;20024;-67
2024/01/10 19:32:46;;;;;;;18.63;12.30;;;;;;;4.76;88.35;99438.03;5037928;28;20426;-68
2024/01/10 19:35:12;;;;;;;21.52;13.25;;;;;;;4.67;88.67;99430.81;5049787;28;20646;-68
2024/01/10 19:37:40;;;;;;;21.08;12.95;;;;;;;4.46;89.08;99399.41;5053685;28;20114;-66
2024/01/10 19:40:08;;;;;;;21.38;12.75;;;;;;;4.42;90.35;99386.69;5036504;28;20864;-68
2024/01/10 19:42:33;;;;;;;22.00;13.15;;;;;;;4.86;90.83;99430.63;5037406;28;20479;-68
2024/01/10 19:44:59;;;;;;;19.85;12.73;;;;;;;4.81;89.15;99423.16;5050308;28;20062;-67
2024/01/10 19:47:29;;;;;;;22.90;13.77;;;;;;;4.70;89.10;99435.81;5048961;28;20177;-66
2024/01/10 19:49:57;;;;;;;25.70;13.75;;;;;;;4.66;89.55;99424.03;5051375;28;20032;-67
2024/01/10 19:52:22;;;;;;;21.33;13.27;;;;;;;4.72;90.58;99427.06;5049074;28;20032;-68
2024/01/10 19:54:47;;;;;;;19.75;12.27;;;;;;;4.68;89.34;99428.16;5040549;27;20063;-68
2024/01/10 19:57:13;;;;;;;25.35;13.52;;;;;;;4.65;90.35;99420.59;5039476;28;20037;-69
2024/01/10 19:59:38;;;;;;;26.70;13.70;;;;;;;4.71;89.83;99447.75;5071919;27;20092;-68
2024/01/10 20:02:11;;;;;;;19.27;12.45;;;;;;;4.76;89.31;99436.31;5047367;28;20043;-67
2024/01/10 20:04:39;;;;;;;21.48;13.20;;;;;;;4.84;88.75;99435.00;5054083;28;20032;-69
2024/01/10 20:07:05;;;;;;;20.55;12.38;;;;;;;4.92;89.09;99443.97;5032168;28;20036;-67
2024/01/10 20:09:31;;;;;;;18.33;11.32;;;;;;;4.82;88.62;99441.09;5052094;28;20068;-68
2024/01/10 20:11:57;;;;;;;20.42;13.32;;;;;;;4.74;89.60;99440.69;5041177;28;20069;-67
2024/01/10 20:14:22;;;;;;;18.35;12.13;;;;;;;4.63;89.97;99451.59;5060534;28;20123;-65
2024/01/10 20:16:50;;;;;;;21.42;13.30;;;;;;;4.77;89.91;99444.84;5046867;28;20054;-68
2024/01/10 20:19:18;;;;;;;19.98;13.27;;;;;;;4.55;90.14;99429.78;5048515;28;20451;-68
2024/01/10 20:21:46;;;;;;;20.80;12.63;;;;;;;4.70;89.67;99448.69;5055342;28;20061;-66
2024/01/10 20:24:13;;;;;;;21.42;13.57;;;;;;;4.67;90.05;99454.84;5050678;28;20036;-67
2024/01/10 20:26:41;;;;;;;21.27;12.68;;;;;;;4.69;89.56;99442.72;5039394;28;20046;-66
2024/01/10 20:29:06;;;;;;;24.17;13.85;;;;;;;4.41;90.19;99387.59;5036959;28;20099;-67
2024/01/10 20:31:35;;;;;;;22.92;13.98;;;;;;;4.62;90.59;99433.69;5051054;28;20032;-67
2024/01/10 20:34:04;;;;;;;22.42;14.00;;;;;;;4.40;90.55;99403.16;5035512;28;20080;-67
2024/01/10 20:36:33;;;;;;;20.25;13.02;;;;;;;4.79;89.71;99450.75;5057396;28;20498;-67
2024/01/10 20:39:03;;;;;;;20.63;13.48;;;;;;;4.42;90.16;99399.56;5040922;28;20738;-68
2024/01/10 20:41:29;;;;;;;23.30;13.15;;;;;;;4.77;89.82;99450.00;5042252;28;20658;-67
2024/01/10 20:43:55;;;;;;;19.48;13.05;;;;;;;4.53;89.84;99413.59;5046038;27;20046;-69
2024/01/10 20:46:20;;;;;;;24.83;13.73;;;;;;;4.66;90.25;99444.63;5038164;28;20032;-68
2024/01/10 20:48:46;;;;;;;24.55;14.30;;;;;;;4.57;90.76;99444.22;5058722;28;20693;-67
2024/01/10 20:51:13;;;;;;;21.38;13.30;;;;;;;4.64;90.88;99449.88;5059180;28;20028;-68
2024/01/10 20:53:39;;;;;;;24.13;13.80;;;;;;;4.73;91.03;99453.69;5062019;27;20047;-68
2024/01/10 20:56:10;;;;;;;21.85;13.48;;;;;;;4.63;91.28;99440.47;5059251;28;20110;-67
2024/01/10 20:58:36;;;;;;;24.90;14.13;;;;;;;4.84;90.91;99453.03;5058769;28;20030;-70
2024/01/10 21:01:01;;;;;;;24.52;14.25;;;;;;;4.74;91.94;99440.69;5037529;28;20778;-67
2024/01/10 21:03:29;;;;;;;22.17;14.10;;;;;;;4.82;91.68;99448.00;5044942;28;20040;-67
2024/01/10 21:05:55;;;;;;;22.15;13.82;;;;;;;4.79;92.01;99443.84;5062340;28;20030;-65
2024/01/10 21:08:20;;;;;;;23.08;13.70;;;;;;;4.35;91.11;99394.84;5044829;27;20040;-68
2024/01/10 21:10:46;;;;;;;21.33;13.30;;;;;;;4.40;91.17;99396.25;5036648;27;20039;-68
2024/01/10 21:13:13;;;;;;;21.63;13.15;;;;;;;4.47;91.37;99401.03;5039478;28;20367;-68
2024/01/10 21:15:39;;;;;;;21.08;13.27;;;;;;;4.62;91.88;99446.56;5056466;28;20035;-69
2024/01/10 21:18:04;;;;;;;22.05;13.80;;;;;;;4.58;91.76;99439.91;5040455;28;21425;-67
2024/01/10 21:20:30;;;;;;;23.65;14.73;;;;;;;4.65;91.37;99445.53;5057708;27;20028;-68
2024/01/10 21:22:56;;;;;;;22.15;13.52;;;;;;;4.54;91.15;99446.97;5035840;28;20032;-66
2024/01/10 21:25:21;;;;;;;20.27;13.85;;;;;;;4.59;91.51;99439.00;5040366;28;20085;-67
2024/01/10 21:27:47;;;;;;;25.23;14.52;;;;;;;4.61;90.74;99442.31;5055553;28;20043;-67
2024/01/10 21:30:14;;;;;;;21.25;13.40;;;;;;;4.47;91.20;99429.38;5057314;27;20027;-69
2024/01/10 21:32:39;;;;;;;22.52;14.13;;;;;;;4.35;91.05;99397.44;5053465;28;20042;-66
2024/01/10 21:35:08;;;;;;;21.30;13.27;;;;;;;4.58;91.78;99445.03;5037725;28;21087;-69
2024/01/10 21:37:35;;;;;;;21.67;13.27;;;;;;;4.55;91.90;99446.06;5062296;28;20189;-68
2024/01/10 21:40:03;;;;;;;21.40;13.50;;;;;;;4.71;91.58;99456.34;5052870;28;20039;-69
2024/01/10 21:42:28;;;;;;;24.67;13.77;;;;;;;4.64;91.36;99449.88;5075154;28;20031;-66
2024/01/10 21:44:55;;;;;;;22.15;13.43;;;;;;;4.70;91.05;99449.53;5071338;28;20217;-66
2024/01/10 21:47:31;;;;;;;21.40;13.45;;;;;;;4.65;91.75;99442.97;5067971;27;20784;-67
2024/01/10 21:49:56;;;;;;;22.88;13.60;;;;;;;4.76;91.81;99448.34;5071548;28;20028;-69
2024/01/10 21:52:24;;;;;;;21.77;13.93;;;;;;;4.43;92.04;99410.69;5082153;28;20088;-69
2024/01/10 21:54:53;;;;;;;21.55;13.25;;;;;;;4.69;91.06;99442.72;5072712;28;20024;-67
2024/01/10 21:57:20;;;;;;;20.95;13.85;;;;;;;4.61;90.85;99440.56;5061490;28;20055;-67
2024/01/10 21:59:48;;;;;;;22.73;14.43;;;;;;;4.69;91.58;99437.56;5056203;28;20016;-67
2024/01/10 22:02:18;;;;;;;24.40;13.80;;;;;;;4.54;90.72;99400.59;5081966;27;20026;-68
2024/01/10 22:04:46;;;;;;;23.05;13.52;;;;;;;4.87;90.41;99435.66;5075573;28;20057;-67
2024/01/10 22:07:14;;;;;;;24.15;13.57;;;;;;;4.71;91.19;99424.56;5065868;28;20088;-67
2024/01/10 22:09:40;;;;;;;23.17;14.63;;;;;;;4.62;91.03;99441.41;5079265;27;20106;-67
2024/01/10 22:12:08;;;;;;;23.35;14.40;;;;;;;4.67;90.60;99431.66;5075220;28;20534;-67
2024/01/10 22:14:34;;;;;;;20.48;13.10;;;;;;;4.74;90.70;99421.84;5049254;28;20891;-67
2024/01/10 22:16:59;;;;;;;22.08;13.25;;;;;;;4.73;91.64;99423.59;5051401;28;20028;-68
2024/01/10 22:19:24;;;;;;;20.55;13.73;;;;;;;4.81;91.48;99420.56;5063004;28;20051;-68
2024/01/10 22:21:52;;;;;;;20.58;12.90;;;;;;;4.78;91.53;99415.56;5069582;28;20042;-69
2024/01/10 22:24:20;;;;;;;22.20;14.68;;;;;;;4.85;91.15;99422.03;5039861;28;20030;-70
2024/01/10 22:26:47;;;;;;;21.92;13.88;;;;;;;4.76;90.96;99420.84;5052708;27;20034;-69